Latest Coastal Weather Observations for Devonport Airport

IDT60701

Issued at 5:52 pm EDT Wednesday 8 February 2023 (issued every 10 minutes, with the page automatically refreshed every 10 minutes)

About coastal observations | Map of coastal stations | Coastal observations for TAS | Marine services | Other Formats
Station Details ID: 091126 Name: DEVONPORT AIRPORT Lat: -41.17 Lon: 146.43 Height: 8.0 m
Data from the previous 72 hours. | See also: Recent months at Devonport Airport
Date/Time
EDT
Wind Sea
Height
m
Swell Vis
km
Cloud Weather Temp
°C
Press
MSL
hPa
Rain since
9am
mm
Dir  Spd
kts
Gust
kts
Height
m
Period
s
Dir
08/05:30pm NNE 14 16 - - - - 10 Partly cloudy - 19.4 1017.9 0.0
08/05:00pm NNE 13 17 - - - - 10 Partly cloudy - 19.5 1018.1 0.0
08/04:30pm NNE 13 16 - - - - 10 Partly cloudy - 19.9 1018.2 0.0
08/04:00pm NNE 13 15 - - - - 10 Partly cloudy - 20.1 1018.3 0.0
08/03:30pm NNE 12 16 - - - - 10 Partly cloudy - 20.3 1018.4 0.0
08/03:00pm NNE 13 17 - - - - 10 Mostly clear - 20.4 1018.7 0.0
08/02:30pm NNE 14 17 - - - - 10 - - 20.0 1018.8 0.0
08/02:00pm NNE 15 18 - - - - 10 Partly cloudy - 20.4 1018.8 0.0
08/01:30pm NNE 14 17 - - - - 10 Partly cloudy - 20.3 1019.0 0.0
08/01:00pm NNE 13 15 - - - - 10 Cloudy - 19.3 1019.2 0.0
08/12:30pm NNE 12 15 - - - - 10 Cloudy - 19.0 1019.5 0.0
08/12:00pm NNE 12 15 - - - - 10 Mostly cloudy - 18.9 1019.6 0.0
08/11:30am NNE 11 13 - - - - 10 Partly cloudy - 18.7 1019.7 0.0
08/11:00am NE 9 11 - - - - 10 Partly cloudy - 18.4 1019.6 0.0
08/10:30am NNE 8 10 - - - - 10 Partly cloudy - 18.2 1019.4 0.0
08/10:00am E 6 10 - - - - 10 Partly cloudy - 18.1 1019.5 0.0
08/09:30am E 6 8 - - - - 10 Partly cloudy - 17.6 1019.5 0.0
08/09:00am SSE 8 11 - - - - 10 Cloudy - 17.2 1019.4 0.0
08/08:30am SSE 8 10 - - - - 10 Partly cloudy - 16.1 1019.2 0.0
08/08:00am SSE 6 8 - - - - 10 Partly cloudy - 15.5 1019.0 0.0
08/07:30am SSE 6 8 - - - - 10 Partly cloudy - 14.9 1018.9 0.0
08/07:00am S 6 7 - - - - 10 Partly cloudy - 14.5 1018.8 0.0
08/06:30am S 6 8 - - - - 10 Partly cloudy - 14.0 1018.6 0.0
08/06:00am S 7 9 - - - - 10 Cloudy - 14.0 1018.4 0.0
08/05:30am S 5 6 - - - - 10 Partly cloudy - 13.9 1018.2 0.0
08/05:00am S 8 9 - - - - 10 Partly cloudy - 13.8 1018.1 0.0
08/04:30am S 8 9 - - - - 10 Partly cloudy - 13.6 1018.1 0.0
08/04:00am S 9 10 - - - - 10 Partly cloudy - 13.6 1018.2 0.0
08/03:30am S 8 10 - - - - 10 Cloudy - 13.3 1018.4 0.0
08/03:00am SSE 9 10 - - - - 10 Cloudy - 13.5 1018.5 0.0
08/02:30am SSE 8 11 - - - - 10 Cloudy - 13.8 1018.6 0.0
08/02:00am SSE 8 10 - - - - 10 Partly cloudy - 13.4 1018.5 0.0
08/01:30am SSE 8 9 - - - - 10 - - 13.1 1018.4 0.0
08/01:00am SSE 8 9 - - - - 10 - - 13.5 1018.4 0.0
08/12:30am SSE 7 9 - - - - 10 - - 13.8 1018.4 0.0
08/12:00am SSE 7 8 - - - - 10 - - 13.9 1018.4 0.0
 
Date/Time
EDT
Wind Sea
Height
m
Swell Vis
km
Cloud Weather Temp
°C
Press
MSL
hPa
Rain since
9am
mm
Dir  Spd
kts
Gust
kts
Height
m
Period
s
Dir
07/11:30pm SE 6 7 - - - - 10 - - 13.9 1018.3 0.0
07/11:00pm ESE 7 8 - - - - 10 - - 14.9 1018.2 0.0
07/10:30pm E 8 11 - - - - 10 - - 15.5 1018.0 0.0
07/10:00pm E 8 11 - - - - 10 - - 15.8 1017.7 0.0
07/09:30pm ENE 10 13 - - - - 10 - - 16.1 1017.3 0.0
07/09:00pm ENE 10 13 - - - - 10 - - 16.3 1016.8 0.0
07/08:30pm ENE 11 13 - - - - 10 - - 17.3 1016.5 0.0
07/08:00pm NE 11 13 - - - - 10 - - 18.4 1016.1 0.0
07/07:30pm NNE 9 11 - - - - 10 - - 19.2 1015.9 0.0
07/07:00pm NNE 9 11 - - - - 10 - - 19.6 1015.7 0.0
07/06:30pm NNE 9 12 - - - - 10 - - 20.0 1015.6 0.0
07/06:00pm N 11 12 - - - - 10 - - 20.1 1015.6 0.0
07/05:30pm NNW 12 14 - - - - 10 - - 20.3 1015.6 0.0
07/05:00pm N 12 14 - - - - 10 - - 20.5 1015.6 0.0
07/04:30pm NNW 13 15 - - - - 10 - - 20.3 1015.7 0.0
07/04:00pm NNW 13 15 - - - - 10 - - 20.1 1015.7 0.0
07/03:30pm NNW 13 15 - - - - 10 - - 20.4 1015.9 0.0
07/03:00pm NNW 12 15 - - - - 10 - - 20.9 1016.0 0.0
07/02:30pm NNW 13 15 - - - - 10 - - 20.1 1016.2 0.0
07/02:00pm NNW 13 15 - - - - 10 - - 20.0 1016.4 0.0
07/01:30pm NNW 12 14 - - - - 10 - - 20.3 1016.7 0.0
07/01:00pm NNW 12 14 - - - - 10 - - 19.9 1016.8 0.0
07/12:30pm NNW 12 14 - - - - 10 - - 19.5 1017.0 0.0
07/12:00pm NW 10 13 - - - - 10 - - 19.0 1017.2 0.0
07/11:30am NNW 8 11 - - - - 10 - - 19.2 1017.2 0.0
07/11:00am NNW 9 12 - - - - 10 - - 19.2 1017.4 0.0
07/10:30am NNW 7 9 - - - - 10 - - 18.1 1017.6 0.0
07/10:00am WSW 3 5 - - - - 10 - - 18.8 1017.6 0.0
07/09:30am SE 4 7 - - - - 10 - - 17.8 1017.7 0.0
07/09:00am SE 4 6 - - - - 10 - - 16.6 1017.7 0.0
07/08:30am SSE 4 5 - - - - 10 - - 14.9 1017.5 0.0
07/08:00am S 4 4 - - - - 10 - - 13.1 1017.3 0.0
07/07:30am SSE 4 6 - - - - 10 - - 10.7 1016.9 0.0
07/07:00am SE 4 5 - - - - 10 - - 8.7 1016.6 0.0
07/06:30am SE 5 6 - - - - 10 - - 7.4 1016.4 0.0
07/06:00am S 4 5 - - - - 10 - - 8.5 1016.2 0.0
07/05:30am S 2 4 - - - - 10 - - 8.5 1016.1 0.0
07/05:00am CALM 0 0 - - - - 10 - - 9.9 1015.9 0.0
07/04:30am SSE 5 5 - - - - 10 - - 10.5 1015.7 0.0
07/04:00am SSW 5 6 - - - - 10 - - 11.4 1015.9 0.0
07/03:30am SSE 5 6 - - - - 10 - - 11.3 1015.8 0.0
07/03:00am SSE 3 4 - - - - 10 - - 11.1 1015.8 0.0
07/02:30am CALM 0 0 - - - - 10 - - 13.6 1015.8 0.0
07/02:00am S 4 6 - - - - 10 - - 12.0 1015.8 0.0
07/01:30am WSW 8 9 - - - - 10 - - 12.6 1016.0 0.0
07/01:00am W 9 13 - - - - 10 - - 13.8 1016.0 0.0
07/12:30am W 9 12 - - - - 10 - - 13.7 1016.0 0.0
07/12:00am WSW 9 13 - - - - 10 - - 13.5 1016.2 0.0
 
Date/Time
EDT
Wind Sea
Height
m
Swell Vis
km
Cloud Weather Temp
°C
Press
MSL
hPa
Rain since
9am
mm
Dir  Spd
kts
Gust
kts
Height
m
Period
s
Dir
06/11:30pm W 10 12 - - - - 10 - - 13.1 1016.5 0.0
06/11:00pm W 10 12 - - - - 10 - - 13.4 1016.6 0.0
06/10:30pm W 10 12 - - - - 10 - - 14.4 1016.5 0.0
06/10:00pm WSW 11 18 - - - - 10 - - 15.4 1016.5 0.0
06/09:44pm WSW 15 27 - - - - 10 - - 16.7 1016.0 0.0
06/09:30pm WSW 14 20 - - - - 10 - - 16.0 1015.9 0.0
06/09:00pm WSW 13 17 - - - - 10 - - 16.7 1015.7 0.0
06/08:30pm WSW 11 15 - - - - 10 - - 17.0 1015.5 0.0
06/08:00pm WSW 15 19 - - - - 10 - - 18.4 1015.2 0.0
06/07:30pm SW 15 20 - - - - 10 - - 20.2 1015.1 0.0
06/07:00pm SW 12 18 - - - - 10 Partly cloudy - 21.5 1014.8 0.0
06/06:30pm SW 17 21 - - - - 10 - - 21.9 1014.5 0.0
06/06:00pm SW 14 21 - - - - 10 - - 23.2 1014.3 0.0
06/05:30pm SW 13 19 - - - - 10 Partly cloudy - 23.9 1014.2 0.0
06/05:00pm SW 11 17 - - - - 10 - - 24.3 1014.2 0.0
06/04:30pm SW 14 21 - - - - 10 - - 24.7 1014.2 0.0
06/04:00pm WSW 14 22 - - - - 10 - - 25.3 1014.3 0.0
06/03:30pm WSW 16 22 - - - - 10 - - 25.3 1014.4 0.0
06/03:00pm W 19 26 - - - - 10 - - 25.0 1014.3 0.0
06/02:30pm WSW 17 21 - - - - 10 - - 24.9 1014.6 0.0
06/02:00pm W 17 24 - - - - 10 Partly cloudy - 25.3 1014.6 0.0
06/01:30pm W 17 23 - - - - 10 - - 24.7 1014.8 0.0
06/01:00pm W 17 24 - - - - 10 - - 24.3 1014.9 0.0
06/12:30pm W 16 21 - - - - 10 - - 23.8 1015.1 0.0
06/12:00pm WNW 9 13 - - - - 10 - - 22.2 1015.3 0.0
06/11:30am NW 8 11 - - - - 10 - - 21.5 1015.6 0.0
06/11:00am NW 10 13 - - - - 10 - - 21.2 1015.9 0.0
06/10:30am NW 11 13 - - - - 10 - - 19.5 1015.9 0.0
06/10:00am NW 12 14 - - - - 10 - - 18.9 1015.7 0.0
06/09:30am WNW 12 15 - - - - 10 - - 18.0 1015.7 0.0
06/09:00am WNW 13 15 - - - - 10 - - 17.3 1015.6 0.0
06/08:30am WNW 12 15 - - - - 10 - - 16.5 1015.4 0.0
06/08:00am WNW 5 8 - - - - 10 - - 16.0 1015.2 0.0
06/07:30am WSW 5 8 - - - - 10 - - 14.6 1015.1 0.0
06/07:00am WSW 9 11 - - - - 10 - - 12.2 1014.8 0.0
06/06:30am WSW 7 10 - - - - 10 - - 11.5 1014.4 0.0
06/06:00am SSW 5 6 - - - - 10 - - 8.8 1014.0 0.0
06/05:30am WSW 4 6 - - - - 10 - - 9.7 1013.6 0.0
06/05:00am S 3 4 - - - - 10 - - 9.3 1013.4 0.0
06/04:30am S 4 5 - - - - 10 - - 8.9 1013.3 0.0
06/04:00am S 4 5 - - - - 10 - - 9.6 1013.0 0.0
06/03:30am S 5 6 - - - - 10 - - 10.2 1013.0 0.0
06/03:00am S 4 5 - - - - 10 - - 10.2 1013.0 0.0
06/02:30am SSW 2 3 - - - - 10 - - 10.7 1013.1 0.0
06/02:00am CALM 0 1 - - - - 10 - - 10.2 1013.1 0.0
06/01:30am SSE 5 6 - - - - 10 - - 11.1 1013.0 0.0
06/01:00am S 4 5 - - - - 10 - - 11.4 1013.1 0.0
06/12:30am CALM 0 0 - - - - 10 - - 12.1 1013.2 0.0
06/12:00am CALM 0 0 - - - - 10 - - 13.3 1013.1 0.0
 
Date/Time
EDT
Wind Sea
Height
m
Swell Vis
km
Cloud Weather Temp
°C
Press
MSL
hPa
Rain since
9am
mm
Dir  Spd
kts
Gust
kts
Height
m
Period
s
Dir
05/11:30pm S 4 5 - - - - 10 - - 13.9 1012.9 0.0
05/11:00pm SW 5 6 - - - - 10 - - 14.9 1013.0 0.0
05/10:30pm SSW 5 6 - - - - 10 - - 15.5 1013.0 0.0
05/10:00pm W 7 8 - - - - 10 - - 16.1 1012.7 0.0
05/09:30pm W 7 8 - - - - 10 - - 17.5 1012.5 0.0
05/09:00pm WNW 13 15 - - - - 10 - - 18.9 1012.2 0.0
05/08:30pm WNW 14 17 - - - - 10 - - 19.2 1012.0 0.0
05/08:00pm WNW 14 17 - - - - 10 - - 20.0 1011.8 0.0
05/07:30pm NW 13 17 - - - - 10 - - 20.8 1011.5 0.0
05/07:00pm NW 10 13 - - - - 10 - - 21.4 1011.3 0.0
05/06:30pm NW 13 15 - - - - 10 - - 21.5 1011.3 0.0
05/06:00pm NW 14 18 - - - - 10 - - 21.4 1011.2 0.0

Other formats

Comma delimited format used in spreadsheet applications
http://www.bom.gov.au/fwo/IDT60701/IDT60701.95960.axf

JavaScript Object Notation format (JSON) in row-major order
http://www.bom.gov.au/fwo/IDT60701/IDT60701.95960.json

Data quality

Most of these data are generated automatically and are frequently updated. Quality checks on data are not normally performed. It is possible for incorrect values to appear. Refer to information at About Latest Weather Observations and please check the disclaimer before using these data.